Time;durP1;ratioP1;P1;durP2;ratioP2;P2;SDS_P1;SDS_P2;PMS_P1;PMS_P2;Temp;Humidity;BMP_temperature;BMP_pressure;BME280_temperature;BME280_humidity;BME280_pressure;Samples;Min_cycle;Max_cycle;Signal;HPM_P1;HPM_P2
2022/11/09 00:00:05;;;;;;;16.13;2.88;;;14.80;99.90;;;;;;5052274;28;20043;-69
2022/11/09 00:02:31;;;;;;;10.73;3.33;;;14.80;99.90;;;;;;5053472;28;20013;-69
2022/11/09 00:04:56;;;;;;;15.73;2.92;;;14.80;99.90;;;;;;5052824;28;20039;-68
2022/11/09 00:07:22;;;;;;;9.43;3.20;;;14.80;99.90;;;;;;5052819;28;20278;-68
2022/11/09 00:09:48;;;;;;;13.52;3.00;;;14.60;99.90;;;;;;5051587;28;20037;-68
2022/11/09 00:12:14;;;;;;;11.05;2.80;;;14.60;99.90;;;;;;5052797;28;20087;-69
2022/11/09 00:14:40;;;;;;;15.55;2.58;;;14.60;99.90;;;;;;5052749;28;20448;-68
2022/11/09 00:17:06;;;;;;;8.63;2.53;;;14.50;99.90;;;;;;5052539;28;20527;-68
2022/11/09 00:19:31;;;;;;;11.70;2.47;;;14.40;99.90;;;;;;5052769;28;20036;-68
2022/11/09 00:21:57;;;;;;;12.88;2.80;;;14.50;99.90;;;;;;5052534;28;20021;-69
2022/11/09 00:24:23;;;;;;;9.23;2.70;;;14.50;99.90;;;;;;5052651;28;20025;-68
2022/11/09 00:26:49;;;;;;;9.32;2.17;;;14.50;99.90;;;;;;5052762;28;20087;-68
2022/11/09 00:29:14;;;;;;;9.60;2.25;;;14.50;99.90;;;;;;5052148;28;20032;-68
2022/11/09 00:31:40;;;;;;;12.52;2.63;;;14.50;99.90;;;;;;5051367;28;20033;-69
2022/11/09 00:34:06;;;;;;;9.43;2.63;;;14.30;99.90;;;;;;5051069;28;20094;-69
2022/11/09 00:36:33;;;;;;;11.20;3.05;;;14.30;99.90;;;;;;5034690;28;20035;-70
2022/11/09 00:39:00;;;;;;;8.82;2.47;;;14.30;99.90;;;;;;5052533;28;20029;-69
2022/11/09 00:41:26;;;;;;;10.70;3.13;;;14.30;99.90;;;;;;5051326;28;20064;-69
2022/11/09 00:43:54;;;;;;;11.32;2.70;;;14.20;99.90;;;;;;5051202;28;20188;-68
2022/11/09 00:46:20;;;;;;;9.82;2.40;;;14.20;99.90;;;;;;5051928;28;20079;-68
2022/11/09 00:48:49;;;;;;;13.02;2.38;;;14.10;99.90;;;;;;5051091;28;20094;-69
2022/11/09 00:51:15;;;;;;;9.52;2.65;;;14.20;99.90;;;;;;5050934;28;20053;-69
2022/11/09 00:53:42;;;;;;;14.18;3.58;;;14.20;99.90;;;;;;5050814;28;20497;-68
2022/11/09 00:56:12;;;;;;;10.73;2.20;;;14.20;99.90;;;;;;5051032;28;20039;-68
2022/11/09 00:58:39;;;;;;;17.00;3.58;;;14.20;99.90;;;;;;5049380;28;20477;-68
2022/11/09 01:01:10;;;;;;;15.20;2.65;;;14.30;99.90;;;;;;5051050;28;20104;-68
2022/11/09 01:03:36;;;;;;;9.52;2.38;;;14.20;99.90;;;;;;5050992;28;20477;-68
2022/11/09 01:06:03;;;;;;;9.18;2.75;;;14.00;99.90;;;;;;5050969;28;20125;-68
2022/11/09 01:08:29;;;;;;;10.02;2.40;;;14.00;99.90;;;;;;5052319;28;20129;-68
2022/11/09 01:10:55;;;;;;;9.77;2.50;;;13.90;99.90;;;;;;5052025;28;20096;-68
2022/11/09 01:13:22;;;;;;;11.07;2.25;;;13.90;99.90;;;;;;5050608;28;20086;-69
2022/11/09 01:15:51;;;;;;;10.73;2.53;;;13.90;99.90;;;;;;5037065;28;20028;-68
2022/11/09 01:18:19;;;;;;;11.27;3.10;;;14.00;99.90;;;;;;5050638;28;20029;-68
2022/11/09 01:20:47;;;;;;;11.32;3.05;;;14.10;99.90;;;;;;5051840;28;20021;-69
2022/11/09 01:23:14;;;;;;;14.27;3.28;;;14.20;99.90;;;;;;5052152;28;20129;-68
2022/11/09 01:25:40;;;;;;;13.52;2.50;;;14.20;99.90;;;;;;5052030;28;20029;-68
2022/11/09 01:28:09;;;;;;;7.45;2.10;;;14.10;99.90;;;;;;5052101;28;20048;-70
2022/11/09 01:30:38;;;;;;;17.70;2.78;;;14.10;99.90;;;;;;5050556;28;20112;-68
2022/11/09 01:33:05;;;;;;;11.75;2.65;;;14.20;99.90;;;;;;5052148;28;20037;-68
2022/11/09 01:35:37;;;;;;;13.93;2.80;;;14.10;99.90;;;;;;5050389;28;20021;-68
2022/11/09 01:38:04;;;;;;;14.85;2.83;;;14.20;99.90;;;;;;5052242;28;20029;-68
2022/11/09 01:40:34;;;;;;;13.45;2.47;;;14.00;99.90;;;;;;5050809;28;20033;-68
2022/11/09 01:43:21;;;;;;;16.73;3.75;;;14.00;99.90;;;;;;5050584;28;20037;-68
2022/11/09 01:46:25;;;;;;;14.00;2.65;;;14.10;99.90;;;;;;5051864;28;20029;-69
2022/11/09 01:48:59;;;;;;;16.98;3.28;;;14.10;99.90;;;;;;5036653;28;20032;-68
2022/11/09 01:51:25;;;;;;;13.32;2.20;;;14.10;99.90;;;;;;5049420;28;20040;-67
2022/11/09 01:53:56;;;;;;;10.82;2.35;;;14.10;99.90;;;;;;5055589;28;20021;-68
2022/11/09 01:56:23;;;;;;;12.52;2.85;;;14.10;99.90;;;;;;5054885;28;20025;-68
2022/11/09 01:58:55;;;;;;;13.05;3.40;;;14.10;99.90;;;;;;5054121;28;20040;-68
2022/11/09 02:01:21;;;;;;;13.30;2.78;;;14.10;99.90;;;;;;5053797;28;20033;-68
2022/11/09 02:03:56;;;;;;;14.45;2.78;;;14.00;99.90;;;;;;5053820;28;20047;-68
2022/11/09 02:06:26;;;;;;;13.93;2.33;;;14.00;99.90;;;;;;5053539;28;20060;-67
2022/11/09 02:08:55;;;;;;;12.25;2.22;;;14.00;99.90;;;;;;5053997;28;20505;-68
2022/11/09 02:11:22;;;;;;;15.20;3.17;;;13.90;99.90;;;;;;5053517;28;20037;-68
2022/11/09 02:13:53;;;;;;;15.57;2.97;;;13.90;99.90;;;;;;5053648;28;20112;-68
2022/11/09 02:16:20;;;;;;;9.23;2.47;;;13.90;99.90;;;;;;5053747;28;20495;-67
2022/11/09 02:18:57;;;;;;;14.43;2.10;;;13.90;99.90;;;;;;5053500;28;20082;-68
2022/11/09 02:21:27;;;;;;;7.13;2.05;;;13.90;99.90;;;;;;5053707;28;20024;-67
2022/11/09 02:23:54;;;;;;;10.30;2.22;;;13.80;99.90;;;;;;5054879;28;20029;-68
2022/11/09 02:26:29;;;;;;;13.93;2.92;;;13.80;99.90;;;;;;5053208;28;20025;-67
2022/11/09 02:28:57;;;;;;;13.02;2.47;;;13.70;99.90;;;;;;5054611;28;20036;-68
2022/11/09 02:31:27;;;;;;;14.15;2.50;;;13.60;99.90;;;;;;5053551;28;20090;-69
2022/11/09 02:33:54;;;;;;;17.58;3.08;;;13.70;99.90;;;;;;5053324;28;20067;-68
2022/11/09 02:36:22;;;;;;;23.77;2.75;;;13.70;99.90;;;;;;5053360;28;20055;-68
2022/11/09 02:38:53;;;;;;;16.73;2.80;;;13.70;99.90;;;;;;5053555;28;20069;-68
2022/11/09 02:41:21;;;;;;;16.95;3.10;;;13.70;99.90;;;;;;5053113;28;20075;-68
2022/11/09 02:43:48;;;;;;;13.10;2.30;;;13.70;99.90;;;;;;5053354;28;20048;-68
2022/11/09 02:46:25;;;;;;;10.43;2.67;;;13.80;99.90;;;;;;5054330;28;20496;-68
2022/11/09 02:48:51;;;;;;;17.80;2.92;;;13.70;99.90;;;;;;5052856;28;20411;-68
2022/11/09 02:51:17;;;;;;;20.77;2.92;;;13.60;99.90;;;;;;5051528;28;20075;-68
2022/11/09 02:53:43;;;;;;;10.60;2.28;;;13.60;99.90;;;;;;5072858;28;20082;-68
2022/11/09 02:56:09;;;;;;;9.57;2.38;;;13.50;99.90;;;;;;5073912;28;20024;-68
2022/11/09 02:58:35;;;;;;;7.95;1.70;;;13.40;99.90;;;;;;5072706;28;20020;-68
2022/11/09 03:01:00;;;;;;;12.05;1.83;;;13.40;99.90;;;;;;5072944;28;20066;-68
2022/11/09 03:03:26;;;;;;;14.75;3.00;;;13.50;99.90;;;;;;5072675;28;20111;-68
2022/11/09 03:05:52;;;;;;;20.35;3.00;;;13.40;99.90;;;;;;5072852;28;20464;-68
2022/11/09 03:08:18;;;;;;;11.40;3.28;;;13.50;99.90;;;;;;5072283;28;20028;-68
2022/11/09 03:10:45;;;;;;;12.90;3.05;;;13.40;99.90;;;;;;5072817;28;20032;-68
2022/11/09 03:13:11;;;;;;;16.50;2.78;;;13.50;99.90;;;;;;5072396;28;20499;-68
2022/11/09 03:15:37;;;;;;;13.68;3.10;;;13.40;99.90;;;;;;5072523;28;20012;-68
2022/11/09 03:18:05;;;;;;;17.45;2.95;;;13.40;99.90;;;;;;5072423;28;20488;-69
2022/11/09 03:20:32;;;;;;;15.13;2.80;;;13.40;99.90;;;;;;5073946;28;20032;-68
2022/11/09 03:22:59;;;;;;;15.63;3.35;;;13.40;99.90;;;;;;5073422;28;20029;-68
2022/11/09 03:25:27;;;;;;;25.98;3.72;;;13.30;99.90;;;;;;5072158;28;20023;-68
2022/11/09 03:27:57;;;;;;;13.63;2.30;;;13.40;99.90;;;;;;5073382;28;20123;-69
2022/11/09 03:30:23;;;;;;;17.55;2.88;;;13.30;99.90;;;;;;5072188;28;20171;-68
2022/11/09 03:32:49;;;;;;;24.40;3.03;;;13.30;99.90;;;;;;5073674;28;20520;-68
2022/11/09 03:35:15;;;;;;;19.83;3.05;;;13.30;99.90;;;;;;5073468;28;20016;-68
2022/11/09 03:37:41;;;;;;;7.35;1.88;;;13.30;99.90;;;;;;5071753;28;20028;-68
2022/11/09 03:40:07;;;;;;;11.52;2.47;;;13.30;99.90;;;;;;5072030;28;20090;-68
2022/11/09 03:42:33;;;;;;;19.83;3.05;;;13.20;99.90;;;;;;5073393;28;20028;-68
2022/11/09 03:44:59;;;;;;;14.65;2.65;;;13.20;99.90;;;;;;5072342;28;20036;-68
2022/11/09 03:47:24;;;;;;;16.02;3.08;;;13.30;99.90;;;;;;5073457;28;20041;-68
2022/11/09 03:49:50;;;;;;;14.25;2.97;;;13.30;99.90;;;;;;5073236;28;20028;-68
2022/11/09 03:52:16;;;;;;;12.77;3.22;;;13.20;99.90;;;;;;5073010;28;20081;-68
2022/11/09 03:54:42;;;;;;;15.65;3.15;;;13.20;99.90;;;;;;5073184;28;20036;-68
2022/11/09 03:57:07;;;;;;;19.00;3.53;;;13.20;99.90;;;;;;5073099;28;20029;-68
2022/11/09 03:59:35;;;;;;;22.00;4.05;;;13.10;99.90;;;;;;5072764;28;20526;-68
2022/11/09 04:02:00;;;;;;;15.95;3.08;;;13.20;99.90;;;;;;5073157;28;20028;-68
2022/11/09 04:04:26;;;;;;;15.80;3.85;;;13.10;99.90;;;;;;5072754;28;20036;-69
2022/11/09 04:06:52;;;;;;;22.60;3.47;;;13.10;99.90;;;;;;5072843;28;20029;-69
2022/11/09 04:09:17;;;;;;;16.15;3.45;;;13.00;99.90;;;;;;5072252;28;20025;-68
2022/11/09 04:11:43;;;;;;;12.27;3.47;;;13.10;99.90;;;;;;5072879;28;20024;-68
2022/11/09 04:14:09;;;;;;;23.60;5.13;;;13.10;99.90;;;;;;5073007;28;20029;-68
2022/11/09 04:16:35;;;;;;;27.75;4.25;;;13.20;99.90;;;;;;5072855;28;20025;-67
2022/11/09 04:19:00;;;;;;;19.08;3.67;;;13.10;99.90;;;;;;5072807;28;20025;-67
2022/11/09 04:21:26;;;;;;;17.92;3.67;;;13.20;99.90;;;;;;5072543;28;20099;-67
2022/11/09 04:23:52;;;;;;;22.48;3.83;;;13.30;99.90;;;;;;5072919;28;20111;-68
2022/11/09 04:26:18;;;;;;;16.70;3.08;;;13.30;99.90;;;;;;5072539;28;20074;-68
2022/11/09 04:28:43;;;;;;;16.05;3.33;;;13.20;99.90;;;;;;5072821;28;20013;-69
2022/11/09 04:31:09;;;;;;;18.70;3.35;;;13.20;99.90;;;;;;5072779;28;20036;-69
2022/11/09 04:33:35;;;;;;;19.55;4.10;;;13.20;99.90;;;;;;5072603;28;20028;-68
2022/11/09 04:36:04;;;;;;;17.08;3.35;;;13.30;99.90;;;;;;5072470;28;20024;-68
2022/11/09 04:38:31;;;;;;;20.33;3.45;;;13.40;99.90;;;;;;5072394;28;20043;-68
2022/11/09 04:41:00;;;;;;;11.73;3.10;;;13.40;99.90;;;;;;5072486;28;20021;-68
2022/11/09 04:43:26;;;;;;;19.15;3.25;;;13.20;99.90;;;;;;5072480;28;20086;-68
2022/11/09 04:45:52;;;;;;;23.83;3.80;;;13.20;99.90;;;;;;5072323;28;20029;-68
2022/11/09 04:48:18;;;;;;;21.95;3.63;;;13.10;99.90;;;;;;5072474;28;20071;-67
2022/11/09 04:50:43;;;;;;;20.00;3.60;;;13.00;99.90;;;;;;5071945;28;20060;-68
2022/11/09 04:53:12;;;;;;;18.02;3.15;;;13.00;99.90;;;;;;5072353;28;20028;-68
2022/11/09 04:55:39;;;;;;;14.23;2.72;;;13.10;99.90;;;;;;5072059;28;20021;-68
2022/11/09 04:58:04;;;;;;;12.00;2.80;;;13.20;99.90;;;;;;5071127;28;20081;-69
2022/11/09 05:00:30;;;;;;;13.73;3.60;;;13.10;99.90;;;;;;5072218;28;20029;-69
2022/11/09 05:03:01;;;;;;;14.40;2.88;;;13.00;99.90;;;;;;5072253;28;20024;-67
2022/11/09 05:05:28;;;;;;;14.00;2.67;;;13.00;99.90;;;;;;5072038;28;20047;-68
2022/11/09 05:07:54;;;;;;;24.83;4.03;;;13.00;99.90;;;;;;5071989;28;20040;-68
2022/11/09 05:10:19;;;;;;;16.60;2.80;;;13.20;99.90;;;;;;5072038;28;20044;-67
2022/11/09 05:12:45;;;;;;;18.23;2.67;;;13.20;99.90;;;;;;5072115;28;20032;-68
2022/11/09 05:15:11;;;;;;;18.75;3.05;;;13.10;99.90;;;;;;5072166;28;20032;-68
2022/11/09 05:17:36;;;;;;;13.65;3.30;;;13.10;99.90;;;;;;5072145;28;20032;-69
2022/11/09 05:20:03;;;;;;;25.00;3.45;;;13.10;99.90;;;;;;5071621;28;20082;-68
2022/11/09 05:25:13;;;;;;;21.33;5.10;;;13.10;99.90;;;;;;5075839;28;20409;-68
2022/11/09 05:27:38;;;;;;;16.15;4.22;;;13.00;99.90;;;;;;5074527;28;20025;-68
2022/11/09 05:30:05;;;;;;;16.50;3.63;;;13.00;99.90;;;;;;5075627;28;20055;-70
2022/11/09 05:32:31;;;;;;;19.60;3.17;;;12.90;99.90;;;;;;5075707;28;20021;-68
2022/11/09 05:34:56;;;;;;;22.75;4.18;;;13.00;99.90;;;;;;5074129;28;20029;-68
2022/11/09 05:37:22;;;;;;;21.63;4.10;;;13.00;99.90;;;;;;5075681;28;20029;-68
2022/11/09 05:39:48;;;;;;;15.98;3.15;;;13.00;99.90;;;;;;5074526;28;20089;-68
2022/11/09 05:42:14;;;;;;;18.00;3.33;;;13.10;99.90;;;;;;5075306;28;20404;-68
2022/11/09 05:44:39;;;;;;;26.10;3.55;;;13.00;99.90;;;;;;5075536;28;20056;-67
2022/11/09 05:47:05;;;;;;;12.85;2.92;;;13.00;99.90;;;;;;5075277;28;20040;-68
2022/11/09 05:49:31;;;;;;;13.40;3.08;;;13.10;99.90;;;;;;5074037;28;20117;-68
2022/11/09 05:51:56;;;;;;;13.95;2.78;;;13.10;99.90;;;;;;5073988;28;20036;-68
2022/11/09 05:54:22;;;;;;;15.82;3.47;;;13.00;99.90;;;;;;5075440;28;20380;-69
2022/11/09 05:56:48;;;;;;;11.90;3.40;;;13.10;99.90;;;;;;5075416;28;20036;-69
2022/11/09 05:59:14;;;;;;;20.02;4.47;;;13.10;99.90;;;;;;5075213;28;20020;-69
2022/11/09 06:01:40;;;;;;;15.38;3.60;;;13.00;99.90;;;;;;5075211;28;20042;-68
2022/11/09 06:04:05;;;;;;;16.88;3.28;;;13.00;99.90;;;;;;5073788;28;20384;-70
2022/11/09 06:06:31;;;;;;;14.95;3.40;;;13.10;99.90;;;;;;5073925;28;20047;-69
2022/11/09 06:08:57;;;;;;;16.15;3.20;;;13.20;99.90;;;;;;5074954;28;20070;-69
2022/11/09 06:11:23;;;;;;;17.17;3.45;;;13.10;99.90;;;;;;5073876;28;20037;-69
2022/11/09 06:13:49;;;;;;;17.27;3.08;;;13.10;99.90;;;;;;5075348;28;20028;-69
2022/11/09 06:16:15;;;;;;;21.27;3.65;;;13.10;99.90;;;;;;5074872;28;20032;-69
2022/11/09 06:18:40;;;;;;;14.93;3.35;;;13.10;99.90;;;;;;5074421;28;20111;-69
2022/11/09 06:21:06;;;;;;;16.52;3.33;;;13.10;99.90;;;;;;5073734;28;20033;-68
2022/11/09 06:23:33;;;;;;;19.20;4.43;;;12.90;99.90;;;;;;5074447;28;20025;-69
2022/11/09 06:26:00;;;;;;;21.95;5.03;;;12.80;99.90;;;;;;5073854;28;20491;-69
2022/11/09 06:28:27;;;;;;;17.60;3.60;;;12.80;99.90;;;;;;5074504;28;20033;-68
2022/11/09 06:30:56;;;;;;;25.67;5.10;;;12.80;99.90;;;;;;5074628;28;20017;-69
2022/11/09 06:33:22;;;;;;;19.20;3.55;;;12.70;99.90;;;;;;5067600;28;20085;-70
2022/11/09 06:35:48;;;;;;;22.60;4.03;;;12.80;99.90;;;;;;5074713;28;20119;-69
2022/11/09 06:38:13;;;;;;;17.38;3.53;;;12.70;99.90;;;;;;5074383;28;20024;-68
2022/11/09 06:40:39;;;;;;;17.42;2.83;;;12.70;99.90;;;;;;5074526;28;20028;-68
2022/11/09 06:43:05;;;;;;;20.60;4.15;;;12.70;99.90;;;;;;5074361;28;20043;-68
2022/11/09 06:45:32;;;;;;;19.55;3.78;;;12.70;99.90;;;;;;5060837;28;20381;-68
2022/11/09 06:48:00;;;;;;;20.50;4.45;;;12.50;99.90;;;;;;5055478;28;20036;-68
2022/11/09 06:50:28;;;;;;;15.45;3.60;;;12.50;99.90;;;;;;5057129;28;20036;-69
2022/11/09 06:53:03;;;;;;;17.55;3.05;;;12.50;99.90;;;;;;5053969;28;20025;-69
2022/11/09 06:55:30;;;;;;;24.15;3.95;;;12.50;99.90;;;;;;5064705;28;20385;-71
2022/11/09 06:57:57;;;;;;;21.42;4.15;;;12.50;99.90;;;;;;5062449;28;20393;-71
2022/11/09 07:00:24;;;;;;;16.13;3.00;;;12.60;99.90;;;;;;5073128;28;20021;-70
2022/11/09 07:02:50;;;;;;;14.90;3.58;;;12.50;99.90;;;;;;5072943;28;20112;-70
2022/11/09 07:05:16;;;;;;;14.75;3.53;;;12.50;99.90;;;;;;5073358;28;20478;-70
2022/11/09 07:07:42;;;;;;;17.73;3.70;;;12.50;99.90;;;;;;5072900;28;20033;-70
2022/11/09 07:10:08;;;;;;;22.08;3.35;;;12.40;99.90;;;;;;5073289;28;20043;-70
2022/11/09 07:12:34;;;;;;;14.45;2.85;;;12.30;99.90;;;;;;5072146;28;20063;-70
2022/11/09 07:15:00;;;;;;;13.13;3.28;;;12.40;99.90;;;;;;5070287;28;20051;-69
2022/11/09 07:17:30;;;;;;;19.50;3.45;;;12.40;99.90;;;;;;5073632;28;20099;-70
2022/11/09 07:19:56;;;;;;;14.63;2.95;;;12.40;99.90;;;;;;5072813;28;20033;-70
2022/11/09 07:22:22;;;;;;;22.83;4.25;;;12.40;99.90;;;;;;5073162;28;20025;-70
2022/11/09 07:24:47;;;;;;;26.42;4.35;;;12.40;99.90;;;;;;5072771;28;20100;-70
2022/11/09 07:27:13;;;;;;;14.32;2.85;;;12.40;99.90;;;;;;5072782;28;20051;-71
2022/11/09 07:29:39;;;;;;;22.70;3.22;;;12.40;99.90;;;;;;5072028;28;20034;-69
2022/11/09 07:32:05;;;;;;;17.70;3.67;;;12.50;99.90;;;;;;5073376;28;20131;-69
2022/11/09 07:34:30;;;;;;;21.75;3.30;;;12.40;99.90;;;;;;5073569;28;20147;-69
2022/11/09 07:36:56;;;;;;;18.10;3.40;;;12.50;99.90;;;;;;5071921;28;20044;-70
2022/11/09 07:39:22;;;;;;;12.60;3.45;;;12.40;99.90;;;;;;5073272;28;20036;-72
2022/11/09 07:41:47;;;;;;;26.05;3.88;;;12.40;99.90;;;;;;5072112;28;20036;-71
2022/11/09 07:44:17;;;;;;;17.80;3.03;;;12.40;99.90;;;;;;5072344;28;20139;-72
2022/11/09 07:46:47;;;;;;;21.02;3.63;;;12.40;99.90;;;;;;5071975;28;20093;-72
2022/11/09 07:49:14;;;;;;;19.85;3.53;;;12.50;99.90;;;;;;5073191;28;20119;-72
2022/11/09 07:51:40;;;;;;;20.45;2.78;;;12.50;99.90;;;;;;5073375;28;20039;-72
2022/11/09 07:54:06;;;;;;;24.08;3.03;;;12.50;99.90;;;;;;5072897;28;20431;-72
2022/11/09 07:56:32;;;;;;;13.48;2.63;;;12.40;99.90;;;;;;5072978;28;20036;-72
2022/11/09 07:58:57;;;;;;;15.50;3.03;;;12.50;99.90;;;;;;5072551;28;20023;-71
2022/11/09 08:01:23;;;;;;;32.80;3.40;;;12.50;99.90;;;;;;5071830;28;20487;-69
2022/11/09 08:03:49;;;;;;;17.25;2.88;;;12.50;99.90;;;;;;5073337;28;20521;-69
2022/11/09 08:06:14;;;;;;;15.52;2.60;;;12.50;99.90;;;;;;5072983;28;20415;-69
2022/11/09 08:08:40;;;;;;;12.43;3.13;;;12.60;99.90;;;;;;5072844;28;20119;-73
2022/11/09 08:11:06;;;;;;;26.10;4.55;;;12.60;99.90;;;;;;5072582;28;20038;-69
2022/11/09 08:13:32;;;;;;;20.15;3.30;;;12.70;99.90;;;;;;5072876;28;20078;-72
2022/11/09 08:16:01;;;;;;;13.70;2.63;;;12.70;99.90;;;;;;5072712;28;20012;-71
2022/11/09 08:18:27;;;;;;;13.48;2.60;;;12.60;99.90;;;;;;5055309;28;20443;-70
2022/11/09 08:20:53;;;;;;;18.92;3.17;;;12.70;99.90;;;;;;5056206;28;20032;-71
2022/11/09 08:23:20;;;;;;;16.00;2.38;;;12.80;99.90;;;;;;5054945;28;20017;-69
2022/11/09 08:25:47;;;;;;;14.52;2.72;;;12.80;99.90;;;;;;5052192;28;20039;-69
2022/11/09 08:28:14;;;;;;;13.57;3.17;;;12.80;99.90;;;;;;5058650;28;20064;-69
2022/11/09 08:30:42;;;;;;;16.00;2.90;;;12.90;99.90;;;;;;5056290;28;20480;-68
2022/11/09 08:33:08;;;;;;;23.48;3.72;;;12.90;99.90;;;;;;5036975;28;20025;-68
2022/11/09 08:35:34;;;;;;;13.60;2.42;;;12.90;99.90;;;;;;5054178;28;20158;-69
2022/11/09 08:38:02;;;;;;;15.80;3.47;;;12.90;99.90;;;;;;5050409;28;20116;-69
2022/11/09 08:40:28;;;;;;;14.05;2.50;;;13.10;99.90;;;;;;5047469;28;20029;-68
2022/11/09 08:42:54;;;;;;;19.13;2.88;;;13.00;99.90;;;;;;5056019;28;20495;-68
2022/11/09 08:45:20;;;;;;;20.05;3.13;;;13.00;99.90;;;;;;5055897;28;20025;-68
2022/11/09 08:47:46;;;;;;;17.23;3.40;;;13.00;99.90;;;;;;5056040;28;20045;-69
2022/11/09 08:50:13;;;;;;;27.50;3.95;;;13.10;99.90;;;;;;5060271;28;20039;-69
2022/11/09 08:52:39;;;;;;;17.02;3.38;;;13.30;99.90;;;;;;5057735;28;20091;-69
2022/11/09 08:55:06;;;;;;;10.43;2.80;;;13.50;99.90;;;;;;5056981;28;20034;-69
2022/11/09 08:57:32;;;;;;;17.77;3.55;;;13.40;99.90;;;;;;5059978;28;20028;-69
2022/11/09 08:59:57;;;;;;;11.55;3.10;;;13.40;99.90;;;;;;5063497;28;20104;-69
2022/11/09 09:02:23;;;;;;;18.30;2.97;;;13.40;99.90;;;;;;5074352;28;20115;-69
2022/11/09 09:04:49;;;;;;;11.57;1.88;;;13.50;99.90;;;;;;5075591;28;20020;-69
2022/11/09 09:07:15;;;;;;;11.90;2.00;;;13.40;99.90;;;;;;5075351;28;20040;-69
2022/11/09 09:09:41;;;;;;;15.82;2.72;;;13.50;99.90;;;;;;5075132;28;20027;-69
2022/11/09 09:12:08;;;;;;;20.92;3.17;;;13.50;99.90;;;;;;5074396;28;20107;-69
2022/11/09 09:14:35;;;;;;;13.70;2.55;;;13.80;99.90;;;;;;5075149;28;20047;-71
2022/11/09 09:17:00;;;;;;;16.20;3.38;;;13.80;99.90;;;;;;5076123;28;20048;-71
2022/11/09 09:19:26;;;;;;;12.70;2.95;;;13.70;99.90;;;;;;5075507;28;20076;-69
2022/11/09 09:21:53;;;;;;;10.55;2.42;;;14.00;99.90;;;;;;5075366;28;20029;-69
2022/11/09 09:24:19;;;;;;;10.43;1.90;;;13.90;99.90;;;;;;5076314;28;20032;-69
2022/11/09 09:26:44;;;;;;;9.20;2.63;;;13.50;99.90;;;;;;5073965;28;20400;-69
2022/11/09 09:29:12;;;;;;;17.23;3.15;;;13.70;99.90;;;;;;5054086;28;20033;-73
2022/11/09 09:31:38;;;;;;;12.15;2.95;;;13.70;99.90;;;;;;5060325;28;20036;-68
2022/11/09 09:34:04;;;;;;;13.35;2.42;;;13.80;99.90;;;;;;5058203;28;20021;-68
2022/11/09 09:36:30;;;;;;;13.52;2.78;;;14.20;99.90;;;;;;5057849;28;20032;-69
2022/11/09 09:38:57;;;;;;;18.13;3.75;;;14.00;99.90;;;;;;5055407;28;20481;-69
2022/11/09 09:41:38;;;;;;;10.98;2.78;;;14.00;99.90;;;;;;5061524;28;20473;-68
2022/11/09 09:44:21;;;;;;;13.98;2.05;;;14.10;99.90;;;;;;5059428;28;20424;-69
2022/11/09 09:47:17;;;;;;;9.05;1.80;;;13.90;99.90;;;;;;5059155;28;20082;-69
2022/11/09 09:49:48;;;;;;;11.73;2.42;;;13.90;99.90;;;;;;5053360;28;20600;-69
2022/11/09 09:52:31;;;;;;;14.18;2.33;;;14.00;99.90;;;;;;5064463;28;20037;-68
2022/11/09 09:55:11;;;;;;;10.18;2.13;;;14.00;99.90;;;;;;5061226;28;20076;-69
2022/11/09 09:57:39;;;;;;;22.60;3.47;;;13.90;99.90;;;;;;5057753;28;20036;-68
2022/11/09 10:00:08;;;;;;;14.77;2.67;;;13.90;99.90;;;;;;5074644;28;20078;-69
2022/11/09 10:02:37;;;;;;;15.30;2.58;;;13.70;99.90;;;;;;5074613;28;20020;-68
2022/11/09 10:05:11;;;;;;;21.50;3.17;;;13.70;99.90;;;;;;5074439;28;20025;-68
2022/11/09 10:07:40;;;;;;;13.70;2.72;;;13.70;99.90;;;;;;5072006;28;20495;-69
2022/11/09 10:10:43;;;;;;;11.43;2.95;;;13.80;99.90;;;;;;5074092;28;20082;-69
2022/11/09 10:13:29;;;;;;;11.93;2.22;;;13.60;99.90;;;;;;5059261;28;20064;-69
2022/11/09 10:16:10;;;;;;;19.67;3.20;;;13.60;99.90;;;;;;5074423;28;20055;-70
2022/11/09 10:18:42;;;;;;;20.35;3.05;;;13.60;99.90;;;;;;5048296;28;20503;-69
2022/11/09 10:21:20;;;;;;;18.17;2.60;;;13.90;99.90;;;;;;5074438;28;20119;-69
2022/11/09 10:24:10;;;;;;;13.73;2.40;;;13.80;99.90;;;;;;5061422;28;20032;-69
2022/11/09 10:26:56;;;;;;;18.08;3.33;;;13.70;99.90;;;;;;5067565;28;20045;-69
2022/11/09 10:29:45;;;;;;;17.42;2.42;;;13.80;99.90;;;;;;5057083;28;20162;-70
2022/11/09 10:32:15;;;;;;;19.15;3.13;;;13.70;99.90;;;;;;5058803;28;20051;-69
2022/11/09 10:35:25;;;;;;;12.45;2.22;;;13.90;99.90;;;;;;5055029;28;20071;-69
2022/11/09 10:37:53;;;;;;;14.50;3.38;;;13.60;99.90;;;;;;5046442;28;20117;-67
2022/11/09 10:40:39;;;;;;;12.00;2.92;;;13.60;99.90;;;;;;5053696;28;20473;-67
2022/11/09 10:43:24;;;;;;;11.82;2.50;;;13.50;99.90;;;;;;5053774;28;20136;-68
2022/11/09 10:46:08;;;;;;;18.52;3.00;;;13.70;99.90;;;;;;5052426;28;20040;-68
2022/11/09 10:48:54;;;;;;;16.45;3.05;;;13.60;99.90;;;;;;5054260;28;20586;-67
2022/11/09 10:51:42;;;;;;;12.18;2.50;;;13.80;99.90;;;;;;5054493;28;20129;-69
2022/11/09 10:54:36;;;;;;;13.43;2.53;;;14.00;99.90;;;;;;5053920;28;20389;-68
2022/11/09 10:57:23;;;;;;;9.57;2.00;;;14.00;99.90;;;;;;5052123;28;20067;-68
2022/11/09 11:00:18;;;;;;;11.55;2.42;;;14.10;99.90;;;;;;5052127;28;20117;-68
2022/11/09 11:03:14;;;;;;;16.08;2.60;;;14.00;99.90;;;;;;5073764;28;20032;-68
2022/11/09 11:06:20;;;;;;;13.57;2.90;;;14.10;99.90;;;;;;5073228;28;20047;-68
2022/11/09 11:09:05;;;;;;;14.00;2.72;;;13.70;99.90;;;;;;5073551;28;20408;-68
2022/11/09 11:12:12;;;;;;;16.23;3.10;;;13.70;99.90;;;;;;5074166;28;20035;-68
2022/11/09 11:14:57;;;;;;;17.90;3.30;;;13.70;99.90;;;;;;5073807;28;20458;-68
2022/11/09 11:17:42;;;;;;;12.23;1.92;;;13.60;99.90;;;;;;5074319;28;20049;-68
2022/11/09 11:20:34;;;;;;;13.77;2.78;;;13.40;99.90;;;;;;5070772;28;20055;-68
2022/11/09 11:23:24;;;;;;;12.95;3.03;;;13.30;99.90;;;;;;5073334;28;20067;-68
2022/11/09 11:26:38;;;;;;;13.80;2.85;;;13.30;99.90;;;;;;5073715;28;20071;-68
2022/11/09 11:29:37;;;;;;;14.60;2.42;;;13.40;99.90;;;;;;5073345;28;20063;-68
2022/11/09 11:32:22;;;;;;;12.90;2.42;;;13.50;99.90;;;;;;5073665;28;20125;-68
2022/11/09 11:35:15;;;;;;;13.80;1.95;;;13.50;99.90;;;;;;5072149;28;20043;-68
2022/11/09 11:38:18;;;;;;;9.70;1.60;;;13.50;99.90;;;;;;5073131;28;20088;-68
2022/11/09 11:41:19;;;;;;;11.25;2.50;;;13.90;99.90;;;;;;5073284;28;20081;-68
2022/11/09 11:44:39;;;;;;;11.38;2.10;;;14.90;99.90;;;;;;5073243;28;20097;-70
2022/11/09 11:47:50;;;;;;;9.63;1.52;;;16.10;99.90;;;;;;5072917;28;20051;-68
2022/11/09 11:51:00;;;;;;;10.47;2.30;;;16.90;99.90;;;;;;5072909;28;20031;-68
2022/11/09 11:54:01;;;;;;;12.82;2.88;;;16.40;99.90;;;;;;5072947;28;20115;-69
2022/11/09 11:56:50;;;;;;;11.02;2.22;;;16.30;99.90;;;;;;5067231;28;20039;-69
2022/11/09 11:59:49;;;;;;;11.65;2.33;;;15.80;99.90;;;;;;5056960;28;20031;-68
2022/11/09 12:02:45;;;;;;;9.10;2.05;;;15.70;99.90;;;;;;5071894;28;20039;-69
2022/11/09 12:06:02;;;;;;;8.57;1.67;;;16.30;99.90;;;;;;5071391;28;20090;-69
2022/11/09 12:09:01;;;;;;;8.88;2.13;;;15.50;99.90;;;;;;5053694;28;20507;-69
2022/11/09 12:11:45;;;;;;;10.95;2.72;;;15.30;99.90;;;;;;5072446;28;20048;-69
2022/11/09 12:14:48;;;;;;;9.60;1.83;;;15.30;99.90;;;;;;5071571;28;20507;-68
2022/11/09 12:17:51;;;;;;;11.73;2.47;;;15.40;99.90;;;;;;5069650;28;20030;-68
2022/11/09 12:20:53;;;;;;;11.50;2.22;;;15.70;99.90;;;;;;5050578;28;20042;-68
2022/11/09 12:24:15;;;;;;;9.20;1.88;;;15.30;99.90;;;;;;5071893;28;20082;-68
2022/11/09 12:27:18;;;;;;;12.48;2.30;;;15.10;99.90;;;;;;5053426;28;20043;-68
2022/11/09 12:30:17;;;;;;;9.05;2.28;;;15.00;99.90;;;;;;5065939;28;20070;-68
2022/11/09 12:33:11;;;;;;;9.02;1.98;;;14.70;99.90;;;;;;5071932;28;20193;-71
2022/11/09 12:36:01;;;;;;;6.78;1.67;;;15.30;99.90;;;;;;5042106;28;20408;-68
2022/11/09 12:38:56;;;;;;;13.10;2.28;;;15.60;99.90;;;;;;5057171;28;20036;-69
2022/11/09 12:41:42;;;;;;;7.25;1.65;;;16.30;99.90;;;;;;5053642;28;20118;-68
2022/11/09 12:44:42;;;;;;;13.93;2.28;;;16.90;99.90;;;;;;5058344;28;20089;-68
2022/11/09 12:47:35;;;;;;;8.93;2.13;;;17.00;99.90;;;;;;5059777;28;20090;-68
2022/11/09 12:50:23;;;;;;;3.80;1.42;;;17.70;99.90;;;;;;5050951;28;20040;-69
2022/11/09 12:53:08;;;;;;;8.02;1.50;;;17.70;99.90;;;;;;5053030;28;20099;-69
2022/11/09 12:56:01;;;;;;;5.43;1.50;;;16.90;99.90;;;;;;5065799;28;20031;-68
2022/11/09 12:58:45;;;;;;;14.20;2.10;;;16.60;99.90;;;;;;5060667;28;20511;-68
2022/11/09 13:01:32;;;;;;;7.20;2.10;;;16.90;99.90;;;;;;5062406;28;20043;-68
2022/11/09 13:04:19;;;;;;;13.00;2.13;;;17.50;99.90;;;;;;5061475;28;20048;-68
2022/11/09 13:07:03;;;;;;;10.57;2.00;;;17.40;99.90;;;;;;5063355;28;20077;-68